METAR Data
IDs: Format: Raw Decoded Include TAF

Data at: 1518 UTC 12 Dec 2018

PADK 121513Z AUTO 25014KT 10SM SCT019 BKN025 01/M02 A2959 RMK AO2 FZRANO
PADK 121456Z AUTO 25014KT 10SM FEW075 01/M02 A2959 RMK AO2 RAB23E37SNE09 SLP020 P0000 60000 T00061017 50005 FZRANO
PADK 121413Z AUTO 26011KT 9SM SCT014 SCT060 BKN070 01/M02 A2959 RMK AO2 SNE09 P0000 FZRANO
PADK 121404Z AUTO 25009KT 8SM -SN BKN016 BKN055 OVC095 01/M02 A2959 RMK AO2 CIG 005V029 P0000 FZRANO
PADK 121356Z AUTO 27011KT 2 1/2SM -SN BR BKN016 BKN022 OVC055 01/M02 A2959 RMK AO2 PK WND 24027/1318 RAB32E37SNB37 SLP021 P0000 T00061017 FZRANO
PADK 121256Z AUTO 25022G25KT 10SM BKN020 BKN026 01/M02 A2958 RMK AO2 RAE1157UPB1157E02 SLP015 P0000 T00111017 FZRANO
PADK 121244Z AUTO 25019G25KT 10SM BKN020 01/M02 A2957 RMK AO2 RAE1157UPB1157E02 P0000 FZRANO
PADK 121156Z AUTO 25015KT 10SM -RA FEW017 BKN060 BKN075 01/M02 A2958 RMK AO2 UPE1057RAB43SNB1057E43 SLP015 P0000 60002 70004 T00061017 10006 21011 50000 FZRANO
PADK 121145Z AUTO 24015KT 9SM -RA FEW013 BKN060 OVC090 01/M01 A2958 RMK AO2 UPE1057RAB43SNB1057E43 P0000 FZRANO
PADK 121119Z AUTO 26013KT 8SM -SN BKN014 BKN018 OVC041 01/M02 A2957 RMK AO2 UPE1057SNB1057 P0000 FZRANO
PADK 121056Z AUTO 25013KT 10SM UP FEW024 00/M02 A2958 RMK AO2 UPE0959B28E30B55SNB30E46 SLP015 P0000 T00001017 FZRANO
PADK 120956Z AUTO 23014KT 10SM UP SCT022 SCT028 M01/M02 A2958 RMK AO2 UPB49 SLP016 P0000 T10061017 400171067 FZRANO
PADK 120856Z AUTO 24008KT 10SM CLR M01/M03 A2957 RMK AO2 SLP015 60002 T10111028 50002 FZRANO
PADK 120837Z AUTO 20003KT 10SM SCT015 M01/M02 A2958 RMK AO2 FZRANO
PADK 120756Z AUTO 23005KT 10SM BKN017 M01/M02 A2958 RMK AO2 SLP016 T10061022 FZRANO
PADK 120739Z AUTO 24011G19KT 10SM BKN017 01/M02 A2957 RMK AO2 FZRANO
PADK 120727Z AUTO 25016KT 10SM SCT017 01/M02 A2957 RMK AO2 FZRANO
PADK 120656Z AUTO 24018G23KT 10SM BKN019 BKN046 OVC075 01/M02 A2957 RMK AO2 RAB25E30SNE25 SLP012 P0002 T00061017 FZRANO
PADK 120636Z AUTO 25017KT 10SM SCT019 BKN043 OVC075 01/M02 A2957 RMK AO2 RAB25E30SNE25 P0001 FZRANO
PADK 120611Z AUTO 22015G20KT 4SM -SN BR BKN019 OVC025 01/M01 A2957 RMK AO2 P0001 FZRANO
PADK 120603Z AUTO 21015G20KT 2 1/2SM -SN BR FEW013 BKN019 OVC031 01/M02 A2957 RMK AO2 P0000 FZRANO
PADK 120556Z AUTO 21014G18KT 3SM -SN BR FEW013 BKN024 OVC031 01/M02 A2957 RMK AO2 RAB03E06B23E41UPB06E09SNE03B28 SLP013 P0002 60002 T00061017 10011 21006 56008 FZRANO
PADK 120544Z AUTO 17007KT 8SM -SN SCT026 BKN033 OVC043 01/M02 A2957 RMK AO2 RAB03E06B23E41UPB06E09SNE03B28 P0002 FZRANO
PADK 120512Z AUTO 17008KT 10SM FEW013 BKN028 OVC065 01/M02 A2958 RMK AO2 RAB03E06UPB06E09SNE03 P0000 FZRANO
PADK 120456Z AUTO 18008KT 5SM -SN BR SCT011 BKN031 OVC060 01/M02 A2958 RMK AO2 WSHFT 0424 UPB30E40RAB43E45SNE30B45 SLP018 P0000 T00061017 FZRANO
PADK 120448Z AUTO 18011KT 4SM -SN BR FEW012 BKN024 OVC031 01/M01 A2959 RMK AO2 WSHFT 0424 UPB30E40RAB43E45SNE30B45 P0000 FZRANO
PADK 120438Z AUTO 19015KT 10SM UP FEW012 BKN031 OVC038 01/M01 A2958 RMK AO2 WSHFT 0424 UPB30SNE30 P0000 FZRANO
PADK 120436Z AUTO 18015KT 9SM UP SCT012 BKN022 OVC036 01/M01 A2958 RMK AO2 UPB30SNE30 P0000 FZRANO
PADK 120410Z AUTO 11008KT 3SM -SN BR SCT006 OVC012 M01/M02 A2959 RMK AO2 P0000 FZRANO
PADK 120403Z AUTO 09008KT 2SM -SN BR BKN006 OVC013 00/M02 A2959 RMK AO2 VIS 1 1/4V4 CIG 005V009 P0000 FZRANO
PADK 120358Z AUTO 11008KT 1SM -SN BR BKN008 OVC015 M01/M02 A2959 RMK AO2 CIG 005V012 P0000 FZRANO
PADK 120356Z AUTO 12009KT 1/2SM -SN FZFG BKN006 OVC012 M01/M02 A2959 RMK AO2 UPB0257E33SNE0257B33 CIG 005V009 SLP021 P0000 T10061017 FZRANO
PADK 120343Z AUTO 13010KT 1/4SM SN FG SCT006 BKN014 OVC030 00/M02 A2960 RMK AO2 UPB0257E33SNE0257B33 P0000 FZRANO
PADK 120338Z AUTO 12011KT 3/4SM -SN BR FEW006 BKN016 OVC028 00/M02 A2961 RMK AO2 UPB0257E33SNE0257B33 P0000 FZRANO
PADK 120335Z AUTO 13007KT 1 3/4SM -SN BR FEW008 BKN016 OVC028 00/M02 A2961 RMK AO2 UPB0257E33SNE0257B33 P0000 FZRANO
PADK 120256Z AUTO 14004KT 7SM -SN SCT009 BKN020 OVC026 00/M02 A2961 RMK AO2 UPB03E08RAB08E29SNB13 SLP028 P0000 60000 T00001022 55001 FZRANO
PADK 120252Z AUTO 11006KT 3SM -SN FEW007 BKN020 OVC026 00/M03 A2962 RMK AO2 UPB03E08RAB08E29SNB13 P0000 FZRANO
PADK 120245Z AUTO 12005KT 1 1/2SM -SN SCT010 BKN020 OVC038 00/M03 A2962 RMK AO2 UPB03E08RAB08E29SNB13 P0000 FZRANO
PADK 120156Z AUTO 15007KT 10SM SCT055 OVC070 01/M07 A2961 RMK AO2 SLP026 T00111067 FZRANO
PADK 120056Z AUTO 12006KT 10SM SCT075 BKN090 01/M06 A2961 RMK AO2 SLP026 T00111056 FZRANO
PADK 112356Z AUTO 13008KT 10SM FEW070 OVC080 02/M06 A2962 RMK AO2 SLP030 T00171056 10017 21011 50001 FZRANO
PADK 112256Z AUTO 17005KT 10SM FEW040 BKN080 OVC090 01/M04 A2963 RMK AO2 SLP032 T00061044 FZRANO
PADK 112156Z AUTO 23004KT 10SM FEW065 SCT080 OVC095 01/M04 A2963 RMK AO2 SLP032 T00061044 FZRANO
PADK 112056Z AUTO 04006KT 10SM OVC070 M01/M05 A2961 RMK AO2 SLP028 T10061050 51021 FZRANO
PADK 111956Z AUTO 02006KT 10SM OVC047 00/M05 A2960 RMK AO2 SLP024 T00001050 FZRANO
PADK 111856Z AUTO 04010KT 10SM FEW039 OVC110 M01/M04 A2957 RMK AO2 SLP014 T10061044 FZRANO
PADK 111756Z AUTO 02009KT 10SM OVC042 M01/M03 A2955 RMK AO2 SLP007 T10061033 11006 21061 53008 FZRANO
PADK 111656Z AUTO 03006KT 10SM BKN042 OVC090 M02/M03 A2954 RMK AO2 SLP003 T10171028 FZRANO
PADK 111556Z AUTO 34005KT 10SM OVC040 M03/M04 A2953 RMK AO2 SLP000 T10281039 FZRANO
PADK 111456Z AUTO 34006KT 10SM SCT034 BKN110 M04/M05 A2953 RMK AO2 SLP999 T10391050 55001 FZRANO
PADK 111356Z AUTO 35005KT 10SM SCT032 SCT090 OVC120 M03/M04 A2953 RMK AO2 SLP999 T10281039 FZRANO
PADK 111316Z AUTO 35006KT 10SM OVC030 M03/M04 A2953 RMK AO2 FZRANO
PADK 111256Z AUTO 00000KT 10SM OVC028 M04/M04 A2953 RMK AO2 SLP999 T10391044 FZRANO
PADK 111208Z AUTO 00000KT 10SM BKN028 BKN110 M06/M07 A2953 RMK AO2 FZRANO
PADK 111156Z AUTO 00000KT 10SM SCT028 SCT110 M06/M07 A2953 RMK AO2 SLP000 70007 T10611072 11044 21067 56012 FZRANO
PADK 111056Z AUTO 00000KT 10SM CLR M06/M07 A2954 RMK AO2 SLP003 T10611072 FZRANO
PADK 110956Z AUTO 23003KT 10SM FEW120 M06/M07 A2955 RMK AO2 SLP007 T10611072 400281067 FZRANO
PADK 110856Z AUTO 35003KT 10SM CLR M06/M07 A2957 RMK AO2 SLP012 T10611072 58008 FZRANO
PADK 110830Z AUTO 24004KT 10SM SCT022 M06/M07 A2957 RMK AO2 FZRANO
PADK 110822Z AUTO 22004KT 10SM SCT021 BKN026 M06/M07 A2958 RMK AO2 FZRANO
PADK 110756Z AUTO 00000KT 10SM FEW019 M06/M07 A2958 RMK AO2 SLP016 T10611072 FZRANO
PADK 110656Z AUTO 00000KT 10SM BKN044 M04/M06 A2959 RMK AO2 SLP021 T10441056 FZRANO
PADK 110556Z AUTO 23005KT 10SM FEW044 M04/M06 A2959 RMK AO2 SLP020 60001 T10441056 10022 21044 50007 FZRANO
PADK 110456Z AUTO 22006KT 10SM BKN043 BKN050 M04/M05 A2959 RMK AO2 SLP021 T10391050 FZRANO